Sappemeer, Netherlands
Current Conditions -  °F | °C
As of 7:25 PM on Saturday 25 Oct 2014 (Local Time) from EHGG Reporting Station
Broken Clouds Broken Clouds  
Wind Chill: 48°   Ceiling: 4400
Heat Index: 48°   Visibility: 6mi
Dew Point: 46°   Wind: 2mph
Humidity: 93%   Direction: 170°S
Pressure: 30.06"   Gusts: NA
Location:  53.16°N, 6.79°E
Report Text: EHGG 251725Z AUTO 17002KT 9999 BKN044 09/08 Q1018 NOSIG
Loading
Personal Weather Stations






























Interactive Weather Map
Tropical Storm Tracking
New forecast layout! Learn more

10-Day Weather Forecast

Advertisements
Track Severe Weather on mobile